Time;durP1;ratioP1;P1;durP2;ratioP2;P2;SDS_P1;SDS_P2;PMS_P1;PMS_P2;Temp;Humidity;BMP_temperature;BMP_pressure;BME280_temperature;BME280_humidity;BME280_pressure;Samples;Min_cycle;Max_cycle;Signal;HPM_P1;HPM_P2
2021/12/02 00:01:12;;;;;;;39.03;16.80;;;;;;;;;;5054974;28;20025;-63
2021/12/02 00:03:39;;;;;;;27.65;15.25;;;;;;;;;;5054988;28;20025;-63
2021/12/02 00:06:08;;;;;;;28.40;14.10;;;;;;;;;;5054816;28;20457;-63
2021/12/02 00:08:34;;;;;;;28.30;14.25;;;;;;;;;;5054888;28;20036;-63
2021/12/02 00:11:00;;;;;;;32.53;12.90;;;;;;;;;;5055026;28;20103;-62
2021/12/02 00:13:29;;;;;;;27.85;14.07;;;;;;;;;;5036813;28;20033;-63
2021/12/02 00:16:06;;;;;;;28.88;14.20;;;;;;;;;;5054700;28;20408;-62
2021/12/02 00:21:09;;;;;;;31.30;14.23;;;;;;;;;;5054603;28;20033;-63
2021/12/02 00:23:44;;;;;;;31.95;15.45;;;;;;;;;;5054249;28;20386;-62
2021/12/02 00:26:21;;;;;;;29.52;13.70;;;;;;;;;;5036558;28;20473;-63
2021/12/02 00:28:54;;;;;;;29.40;13.00;;;;;;;;;;5054437;28;20488;-63
2021/12/02 00:31:22;;;;;;;25.17;12.02;;;;;;;;;;5054425;28;20029;-63
2021/12/02 00:33:51;;;;;;;26.85;12.50;;;;;;;;;;5054371;28;20033;-62
2021/12/02 00:36:18;;;;;;;27.17;12.40;;;;;;;;;;5054327;28;20029;-63
2021/12/02 00:38:46;;;;;;;30.02;13.93;;;;;;;;;;5054273;28;20021;-63
2021/12/02 00:41:14;;;;;;;32.33;13.35;;;;;;;;;;5036001;28;20086;-63
2021/12/02 00:43:40;;;;;;;32.58;12.32;;;;;;;;;;5054174;28;20029;-63
2021/12/02 00:46:08;;;;;;;20.45;10.05;;;;;;;;;;5054032;28;20132;-63
2021/12/02 00:48:36;;;;;;;24.98;10.43;;;;;;;;;;5054100;28;20462;-62
2021/12/02 00:51:03;;;;;;;29.75;12.45;;;;;;;;;;5053700;28;20052;-63
2021/12/02 00:53:31;;;;;;;25.98;11.90;;;;;;;;;;5054022;28;20048;-63
2021/12/02 00:55:57;;;;;;;24.27;10.18;;;;;;;;;;5053958;28;20058;-63
2021/12/02 00:58:24;;;;;;;21.38;9.02;;;;;;;;;;5036309;28;20365;-65
2021/12/02 01:01:01;;;;;;;20.45;7.88;;;;;;;;;;5053835;28;20036;-63
2021/12/02 01:03:32;;;;;;;22.88;9.80;;;;;;;;;;5054094;28;20500;-64
2021/12/02 01:05:58;;;;;;;22.88;11.10;;;;;;;;;;5053746;28;20029;-63
2021/12/02 01:08:26;;;;;;;23.48;9.10;;;;;;;;;;5053651;28;20017;-63
2021/12/02 01:10:52;;;;;;;19.38;8.35;;;;;;;;;;5053382;28;20104;-63
2021/12/02 01:13:18;;;;;;;25.27;11.65;;;;;;;;;;5035721;28;20032;-63
2021/12/02 01:15:44;;;;;;;21.92;9.73;;;;;;;;;;5053556;28;20021;-63
2021/12/02 01:18:11;;;;;;;22.70;8.77;;;;;;;;;;5053270;28;20544;-63
2021/12/02 01:20:38;;;;;;;31.45;16.85;;;;;;;;;;5053158;28;20027;-63
2021/12/02 01:23:07;;;;;;;37.35;18.38;;;;;;;;;;5035540;28;20461;-63
2021/12/02 01:25:35;;;;;;;38.65;20.08;;;;;;;;;;5053147;28;20025;-63
2021/12/02 01:28:01;;;;;;;39.90;20.02;;;;;;;;;;5053286;28;20033;-63
2021/12/02 01:30:28;;;;;;;32.28;16.10;;;;;;;;;;5053312;28;20013;-64
2021/12/02 01:32:59;;;;;;;19.20;9.73;;;;;;;;;;5035362;28;20032;-63
2021/12/02 01:35:26;;;;;;;22.73;9.75;;;;;;;;;;5053049;28;20663;-63
2021/12/02 01:37:53;;;;;;;25.38;11.70;;;;;;;;;;5035292;28;20521;-64
2021/12/02 01:40:19;;;;;;;47.20;21.13;;;;;;;;;;5035242;28;20112;-63
2021/12/02 01:42:47;;;;;;;40.80;20.58;;;;;;;;;;5035298;28;20032;-64
2021/12/02 01:45:16;;;;;;;31.48;18.42;;;;;;;;;;5035240;28;20032;-63
2021/12/02 01:47:46;;;;;;;35.30;19.50;;;;;;;;;;5052981;28;20116;-63
2021/12/02 01:50:15;;;;;;;35.97;20.08;;;;;;;;;;5053081;28;20027;-63
2021/12/02 01:52:43;;;;;;;36.67;19.05;;;;;;;;;;5034677;28;20045;-64
2021/12/02 01:55:11;;;;;;;30.38;16.25;;;;;;;;;;5035013;28;20029;-63
2021/12/02 01:57:43;;;;;;;21.58;13.75;;;;;;;;;;5052916;28;20024;-63
2021/12/02 02:00:09;;;;;;;24.70;12.65;;;;;;;;;;5053024;28;20131;-63
2021/12/02 02:02:37;;;;;;;21.02;11.90;;;;;;;;;;5052955;28;20024;-64
2021/12/02 02:05:07;;;;;;;18.70;11.15;;;;;;;;;;5052945;28;20025;-63
2021/12/02 02:07:34;;;;;;;15.27;8.85;;;;;;;;;;5052819;28;20040;-63
2021/12/02 02:10:00;;;;;;;16.40;8.35;;;;;;;;;;5034982;28;20128;-63
2021/12/02 02:12:26;;;;;;;12.52;6.75;;;;;;;;;;5052860;28;20079;-63
2021/12/02 02:14:52;;;;;;;12.07;6.25;;;;;;;;;;5052833;28;20017;-64
2021/12/02 02:17:33;;;;;;;13.60;6.00;;;;;;;;;;5052778;28;20083;-63
2021/12/02 02:20:00;;;;;;;10.32;5.75;;;;;;;;;;5052840;28;20029;-63
2021/12/02 02:22:26;;;;;;;12.40;6.07;;;;;;;;;;5052733;28;20361;-63
2021/12/02 02:24:53;;;;;;;15.60;6.53;;;;;;;;;;5052762;28;20083;-63
2021/12/02 02:27:21;;;;;;;13.80;6.32;;;;;;;;;;5052640;28;20120;-64
2021/12/02 02:29:47;;;;;;;14.40;5.60;;;;;;;;;;5052711;28;20021;-64
2021/12/02 02:32:13;;;;;;;10.98;6.53;;;;;;;;;;5052403;28;20013;-63
2021/12/02 02:34:39;;;;;;;12.68;6.00;;;;;;;;;;5052658;28;20579;-63
2021/12/02 02:37:07;;;;;;;12.75;6.28;;;;;;;;;;5052660;28;20055;-64
2021/12/02 02:39:35;;;;;;;13.27;5.72;;;;;;;;;;5052562;28;20017;-63
2021/12/02 02:42:06;;;;;;;14.38;7.03;;;;;;;;;;5034908;28;20063;-63
2021/12/02 02:44:33;;;;;;;11.98;5.60;;;;;;;;;;5052611;28;20049;-64
2021/12/02 02:47:00;;;;;;;10.88;5.88;;;;;;;;;;5052449;28;20524;-63
2021/12/02 02:49:26;;;;;;;12.30;6.03;;;;;;;;;;5052215;28;20037;-63
2021/12/02 02:51:52;;;;;;;10.70;5.20;;;;;;;;;;5052140;28;20049;-63
2021/12/02 02:54:18;;;;;;;12.43;5.97;;;;;;;;;;5052456;28;20060;-63
2021/12/02 02:57:03;;;;;;;11.73;6.18;;;;;;;;;;5052751;28;20074;-63
2021/12/02 02:59:58;;;;;;;12.75;5.57;;;;;;;;;;5052485;28;20029;-63
2021/12/02 03:05:00;;;;;;;10.68;5.47;;;;;;;;;;5052109;28;20037;-63
2021/12/02 03:07:34;;;;;;;18.30;8.65;;;;;;;;;;5055900;28;20120;-63
2021/12/02 03:12:36;;;;;;;19.85;8.38;;;;;;;;;;5055855;28;20044;-63
2021/12/02 03:17:29;;;;;;;11.02;5.68;;;;;;;;;;5055758;28;20033;-63
2021/12/02 03:19:55;;;;;;;11.15;5.22;;;;;;;;;;5055572;28;20061;-63
2021/12/02 03:22:23;;;;;;;10.57;5.35;;;;;;;;;;5055712;28;20021;-63
2021/12/02 03:24:50;;;;;;;10.90;5.35;;;;;;;;;;5055948;28;20021;-62
2021/12/02 03:27:16;;;;;;;10.68;5.90;;;;;;;;;;5055292;28;20071;-63
2021/12/02 03:29:42;;;;;;;11.05;5.55;;;;;;;;;;5055274;28;20025;-63
2021/12/02 03:32:09;;;;;;;9.02;5.28;;;;;;;;;;5037545;28;20393;-63
2021/12/02 03:34:36;;;;;;;9.93;5.25;;;;;;;;;;5055530;28;20029;-63
2021/12/02 03:37:02;;;;;;;9.77;5.93;;;;;;;;;;5055479;28;20024;-63
2021/12/02 03:39:28;;;;;;;15.88;6.25;;;;;;;;;;5054992;28;20527;-63
2021/12/02 03:41:55;;;;;;;11.52;6.35;;;;;;;;;;5037567;28;20025;-63
2021/12/02 03:44:22;;;;;;;15.75;6.75;;;;;;;;;;5037402;28;20103;-63
2021/12/02 03:46:49;;;;;;;13.70;7.25;;;;;;;;;;5055189;28;20116;-64
2021/12/02 03:49:15;;;;;;;16.77;8.27;;;;;;;;;;5055003;28;20025;-63
2021/12/02 03:51:42;;;;;;;13.85;6.90;;;;;;;;;;5054797;28;20053;-63
2021/12/02 03:54:08;;;;;;;17.48;9.23;;;;;;;;;;5055147;28;20025;-64
2021/12/02 03:56:41;;;;;;;20.40;10.02;;;;;;;;;;5037194;28;20027;-64
2021/12/02 03:59:07;;;;;;;21.15;10.88;;;;;;;;;;5054837;28;20474;-63
2021/12/02 04:01:34;;;;;;;17.35;9.93;;;;;;;;;;5054937;28;20025;-63
2021/12/02 04:04:00;;;;;;;20.55;9.00;;;;;;;;;;5036779;28;20060;-63
2021/12/02 04:06:26;;;;;;;13.95;8.55;;;;;;;;;;5054883;28;20128;-63
2021/12/02 04:08:56;;;;;;;17.13;7.60;;;;;;;;;;5036952;28;20025;-63
2021/12/02 04:14:25;;;;;;;19.27;7.68;;;;;;;;;;5054843;28;20150;-63
2021/12/02 04:16:53;;;;;;;13.88;7.55;;;;;;;;;;5054485;28;20065;-63
2021/12/02 04:19:20;;;;;;;12.80;6.35;;;;;;;;;;5054516;28;20056;-63
2021/12/02 04:21:47;;;;;;;11.80;5.70;;;;;;;;;;5054875;28;20102;-63
2021/12/02 04:24:13;;;;;;;15.35;6.13;;;;;;;;;;5054602;28;20086;-63
2021/12/02 04:26:43;;;;;;;14.43;5.68;;;;;;;;;;5054449;28;20037;-64
2021/12/02 04:29:09;;;;;;;9.00;5.03;;;;;;;;;;5054361;28;20049;-63
2021/12/02 04:31:35;;;;;;;13.75;5.70;;;;;;;;;;5054469;28;20389;-64
2021/12/02 04:34:02;;;;;;;13.48;5.10;;;;;;;;;;5054055;28;20104;-63
2021/12/02 04:36:28;;;;;;;12.43;5.50;;;;;;;;;;5054385;28;20043;-63
2021/12/02 04:38:54;;;;;;;10.07;4.00;;;;;;;;;;5054032;28;20060;-63
2021/12/02 04:41:20;;;;;;;13.07;4.57;;;;;;;;;;5036364;28;20024;-63
2021/12/02 04:43:46;;;;;;;10.07;4.68;;;;;;;;;;5054151;28;20165;-63
2021/12/02 04:46:14;;;;;;;9.82;5.38;;;;;;;;;;5053708;28;20428;-64
2021/12/02 04:48:41;;;;;;;11.38;6.28;;;;;;;;;;5036206;28;20102;-63
2021/12/02 04:51:07;;;;;;;12.13;6.78;;;;;;;;;;5053642;28;20051;-63
2021/12/02 04:53:33;;;;;;;17.30;7.72;;;;;;;;;;5036106;28;20055;-63
2021/12/02 04:56:00;;;;;;;18.13;8.23;;;;;;;;;;5053969;28;20104;-64
2021/12/02 04:58:26;;;;;;;20.20;9.40;;;;;;;;;;5053829;28;20071;-63
2021/12/02 05:00:52;;;;;;;26.42;11.00;;;;;;;;;;5053676;28;20079;-63
2021/12/02 05:03:19;;;;;;;26.13;11.15;;;;;;;;;;5035603;28;20029;-63
2021/12/02 05:05:47;;;;;;;22.95;11.02;;;;;;;;;;5053808;28;20049;-63
2021/12/02 05:08:13;;;;;;;24.38;11.63;;;;;;;;;;5053578;28;20037;-64
2021/12/02 05:10:39;;;;;;;23.17;11.20;;;;;;;;;;5053956;28;20052;-64
2021/12/02 05:13:06;;;;;;;19.70;10.90;;;;;;;;;;5053640;28;20025;-63
2021/12/02 05:15:32;;;;;;;21.88;10.77;;;;;;;;;;5035640;28;20063;-64
2021/12/02 05:18:02;;;;;;;16.23;9.02;;;;;;;;;;5053260;28;20109;-64
2021/12/02 05:20:28;;;;;;;22.27;9.30;;;;;;;;;;5053448;28;20113;-65
2021/12/02 05:22:54;;;;;;;21.83;10.40;;;;;;;;;;5053405;28;20035;-64
2021/12/02 05:25:20;;;;;;;18.77;9.77;;;;;;;;;;5035522;28;20119;-63
2021/12/02 05:27:47;;;;;;;17.38;8.20;;;;;;;;;;5052731;28;20040;-64
2021/12/02 05:30:13;;;;;;;13.63;7.10;;;;;;;;;;5053281;28;20032;-64
2021/12/02 05:32:39;;;;;;;15.35;8.13;;;;;;;;;;5035152;28;20052;-63
2021/12/02 05:35:06;;;;;;;19.13;8.57;;;;;;;;;;5035427;28;20378;-64
2021/12/02 05:37:32;;;;;;;16.38;8.63;;;;;;;;;;5035367;28;20029;-63
2021/12/02 05:39:58;;;;;;;19.63;7.72;;;;;;;;;;5035329;28;20048;-63
2021/12/02 05:42:25;;;;;;;13.18;7.53;;;;;;;;;;5035290;28;20369;-64
2021/12/02 05:44:51;;;;;;;16.00;8.10;;;;;;;;;;5053104;28;20033;-63
2021/12/02 05:47:17;;;;;;;14.27;7.95;;;;;;;;;;5053055;28;20040;-64
2021/12/02 05:49:43;;;;;;;16.38;8.15;;;;;;;;;;5035158;28;20029;-64
2021/12/02 05:52:09;;;;;;;17.77;8.65;;;;;;;;;;5053006;28;20052;-63
2021/12/02 05:54:35;;;;;;;28.10;13.75;;;;;;;;;;5053037;28;20135;-63
2021/12/02 05:57:02;;;;;;;43.85;20.27;;;;;;;;;;5052982;28;20378;-63
2021/12/02 05:59:29;;;;;;;47.60;20.98;;;;;;;;;;5052487;28;20448;-63
2021/12/02 06:01:56;;;;;;;52.95;22.08;;;;;;;;;;5052911;28;20064;-64
2021/12/02 06:04:22;;;;;;;64.07;27.08;;;;;;;;;;5052911;28;20075;-63
2021/12/02 06:06:50;;;;;;;56.65;24.67;;;;;;;;;;5053032;28;20122;-63
2021/12/02 06:09:18;;;;;;;63.28;25.10;;;;;;;;;;5052721;28;20033;-63
2021/12/02 06:11:45;;;;;;;45.70;19.70;;;;;;;;;;5052848;28;20541;-63
2021/12/02 06:14:13;;;;;;;43.80;20.08;;;;;;;;;;5052729;28;20443;-63
2021/12/02 06:16:39;;;;;;;43.83;18.85;;;;;;;;;;5052518;28;20385;-64
2021/12/02 06:19:06;;;;;;;42.80;20.02;;;;;;;;;;5052729;28;20381;-63
2021/12/02 06:21:33;;;;;;;35.58;17.10;;;;;;;;;;5052521;28;20440;-63
2021/12/02 06:24:01;;;;;;;40.60;16.33;;;;;;;;;;5052459;28;20049;-63
2021/12/02 06:26:27;;;;;;;38.28;14.48;;;;;;;;;;5052440;28;20030;-63
2021/12/02 06:28:54;;;;;;;36.72;14.57;;;;;;;;;;5052423;28;20056;-63
2021/12/02 06:31:21;;;;;;;36.38;15.73;;;;;;;;;;5052612;28;20078;-64
2021/12/02 06:33:47;;;;;;;44.20;19.23;;;;;;;;;;5069852;28;20028;-64
2021/12/02 06:36:13;;;;;;;34.92;17.02;;;;;;;;;;5042188;28;20021;-63
2021/12/02 06:38:41;;;;;;;49.45;20.40;;;;;;;;;;5050704;28;20061;-64
2021/12/02 06:41:08;;;;;;;48.38;20.88;;;;;;;;;;5074993;28;20074;-64
2021/12/02 06:43:34;;;;;;;50.80;21.08;;;;;;;;;;5074898;28;20037;-64
2021/12/02 06:46:00;;;;;;;59.45;22.85;;;;;;;;;;5074995;28;20430;-64
2021/12/02 06:48:26;;;;;;;47.00;21.02;;;;;;;;;;5052243;28;20127;-64
2021/12/02 06:50:55;;;;;;;39.33;18.05;;;;;;;;;;5074344;28;20048;-64
2021/12/02 06:53:21;;;;;;;57.80;25.83;;;;;;;;;;5072563;28;20033;-63
2021/12/02 06:55:47;;;;;;;52.90;25.10;;;;;;;;;;5074727;28;20457;-65
2021/12/02 06:58:13;;;;;;;67.25;29.13;;;;;;;;;;5074680;28;20036;-64
2021/12/02 07:00:39;;;;;;;79.45;38.78;;;;;;;;;;5072076;28;20024;-64
2021/12/02 07:03:06;;;;;;;72.07;35.47;;;;;;;;;;5046541;28;20441;-64
2021/12/02 07:08:36;;;;;;;60.58;31.40;;;;;;;;;;5067772;28;20133;-64
2021/12/02 07:11:05;;;;;;;66.38;31.13;;;;;;;;;;5055952;28;20017;-64
2021/12/02 07:13:31;;;;;;;64.38;33.30;;;;;;;;;;5075699;28;20017;-64
2021/12/02 07:15:59;;;;;;;77.22;39.75;;;;;;;;;;5057490;28;20162;-63
2021/12/02 07:18:26;;;;;;;86.45;46.80;;;;;;;;;;5057619;28;20124;-63
2021/12/02 07:20:52;;;;;;;93.80;50.63;;;;;;;;;;5075625;28;20052;-63
2021/12/02 07:23:20;;;;;;;102.22;54.35;;;;;;;;;;5075602;28;20108;-62
2021/12/02 07:25:46;;;;;;;114.50;62.92;;;;;;;;;;5075482;28;20284;-64
2021/12/02 07:28:13;;;;;;;104.28;55.30;;;;;;;;;;5057396;28;20035;-66
2021/12/02 07:30:40;;;;;;;86.80;44.33;;;;;;;;;;5057469;28;20056;-65
2021/12/02 07:33:08;;;;;;;58.38;30.92;;;;;;;;;;5057286;28;20071;-64
2021/12/02 07:35:34;;;;;;;64.93;33.75;;;;;;;;;;5075641;28;20032;-63
2021/12/02 07:38:01;;;;;;;55.05;27.50;;;;;;;;;;5074868;28;20051;-63
2021/12/02 07:40:33;;;;;;;48.25;21.08;;;;;;;;;;5075115;28;20075;-64
2021/12/02 07:42:59;;;;;;;;;;;;;;;;;;5075714;28;20028;-64
2021/12/02 07:45:27;;;;;;;40.78;18.77;;;;;;;;;;5072987;28;19958;-65
2021/12/02 07:47:54;;;;;;;55.22;24.70;;;;;;;;;;5048610;28;20473;-64
2021/12/02 07:50:20;;;;;;;50.53;23.50;;;;;;;;;;5036560;28;20036;-64
2021/12/02 07:52:54;;;;;;;42.75;21.05;;;;;;;;;;5055137;28;20136;-65
2021/12/02 07:55:21;;;;;;;57.97;21.55;;;;;;;;;;5056732;28;20031;-63
2021/12/02 07:57:48;;;;;;;45.63;19.90;;;;;;;;;;5056161;28;20028;-66
2021/12/02 08:00:16;;;;;;;47.25;20.13;;;;;;;;;;5074747;28;20472;-63
2021/12/02 08:02:46;;;;;;;41.03;18.52;;;;;;;;;;5074673;28;20024;-63
2021/12/02 08:05:13;;;;;;;41.97;18.25;;;;;;;;;;5074439;28;20021;-63
2021/12/02 08:07:39;;;;;;;45.53;19.83;;;;;;;;;;5074243;28;20357;-64
2021/12/02 08:10:07;;;;;;;55.83;25.50;;;;;;;;;;5074328;28;20028;-64
2021/12/02 08:12:34;;;;;;;56.65;26.00;;;;;;;;;;5074324;28;20488;-64
2021/12/02 08:15:01;;;;;;;54.38;26.05;;;;;;;;;;5074399;28;20029;-65
2021/12/02 08:17:27;;;;;;;57.53;29.08;;;;;;;;;;5074411;28;20058;-65
2021/12/02 08:19:54;;;;;;;75.18;30.08;;;;;;;;;;5056490;28;20063;-66
2021/12/02 08:22:20;;;;;;;58.42;26.95;;;;;;;;;;5074327;28;20032;-67
2021/12/02 08:24:46;;;;;;;53.45;23.85;;;;;;;;;;5072582;28;20115;-64
2021/12/02 08:27:12;;;;;;;57.15;25.67;;;;;;;;;;5073705;28;20491;-65
2021/12/02 08:29:38;;;;;;;53.08;23.45;;;;;;;;;;5074080;28;20037;-64
2021/12/02 08:32:05;;;;;;;50.85;20.45;;;;;;;;;;5056075;28;20029;-64
2021/12/02 08:34:31;;;;;;;56.45;22.17;;;;;;;;;;5056071;28;20141;-64
2021/12/02 08:36:57;;;;;;;62.55;23.88;;;;;;;;;;5073955;28;20087;-65
2021/12/02 08:39:27;;;;;;;76.50;28.42;;;;;;;;;;5073433;28;20021;-64
2021/12/02 08:41:55;;;;;;;71.70;31.52;;;;;;;;;;5072782;28;20048;-64
2021/12/02 08:44:22;;;;;;;78.72;33.85;;;;;;;;;;5055495;28;20067;-64
2021/12/02 08:46:49;;;;;;;68.90;30.98;;;;;;;;;;5055804;28;20602;-63
2021/12/02 08:49:16;;;;;;;59.97;23.05;;;;;;;;;;5055695;28;20362;-64
2021/12/02 08:51:42;;;;;;;50.38;21.67;;;;;;;;;;5073036;28;20524;-64
2021/12/02 08:54:09;;;;;;;42.88;16.02;;;;;;;;;;5055586;28;20024;-64
2021/12/02 08:56:35;;;;;;;25.92;13.55;;;;;;;;;;5073518;28;20028;-65
2021/12/02 08:59:01;;;;;;;30.58;15.32;;;;;;;;;;5073524;28;20027;-63
2021/12/02 09:01:28;;;;;;;47.08;24.23;;;;;;;;;;5055840;28;20435;-63
2021/12/02 09:03:55;;;;;;;49.83;24.85;;;;;;;;;;5052044;28;20099;-65
2021/12/02 09:06:22;;;;;;;56.65;27.67;;;;;;;;;;5054425;28;20107;-64
2021/12/02 09:08:49;;;;;;;60.00;28.13;;;;;;;;;;5073379;28;20032;-65
2021/12/02 09:11:16;;;;;;;42.85;18.42;;;;;;;;;;5072895;28;20028;-64
2021/12/02 09:13:42;;;;;;;36.92;18.17;;;;;;;;;;5055449;28;20391;-67
2021/12/02 09:16:08;;;;;;;37.35;18.40;;;;;;;;;;5072668;28;20765;-63
2021/12/02 09:18:35;;;;;;;41.78;17.58;;;;;;;;;;5055230;28;20530;-64
2021/12/02 09:21:01;;;;;;;32.15;16.15;;;;;;;;;;5072740;28;20020;-63
2021/12/02 09:23:27;;;;;;;36.03;17.33;;;;;;;;;;5055004;28;20024;-63
2021/12/02 09:25:54;;;;;;;31.80;16.15;;;;;;;;;;5072646;28;20104;-63
2021/12/02 09:28:20;;;;;;;33.15;16.65;;;;;;;;;;5072270;28;20028;-63
2021/12/02 09:30:46;;;;;;;42.45;18.73;;;;;;;;;;5072680;28;20036;-64
2021/12/02 09:33:12;;;;;;;52.70;23.63;;;;;;;;;;5054891;28;20073;-66
2021/12/02 09:35:39;;;;;;;45.15;21.35;;;;;;;;;;5073243;28;20520;-64
2021/12/02 09:38:07;;;;;;;32.38;15.95;;;;;;;;;;5072743;28;20052;-66
2021/12/02 09:40:34;;;;;;;30.58;13.95;;;;;;;;;;5072408;28;20279;-64
2021/12/02 09:43:00;;;;;;;17.60;9.55;;;;;;;;;;5072590;28;20027;-64
2021/12/02 09:45:26;;;;;;;20.48;9.65;;;;;;;;;;5072846;28;20020;-64
2021/12/02 09:47:53;;;;;;;34.15;9.20;;;;;;;;;;5072803;28;20102;-66
2021/12/02 09:50:31;;;;;;;9.70;5.93;;;;;;;;;;5054574;28;20028;-64
2021/12/02 09:53:07;;;;;;;13.43;5.85;;;;;;;;;;5072268;28;20052;-66
2021/12/02 09:55:52;;;;;;;13.40;7.07;;;;;;;;;;5072975;28;20029;-64
2021/12/02 09:58:22;;;;;;;21.00;9.43;;;;;;;;;;5054341;28;20031;-65
2021/12/02 10:01:06;;;;;;;25.90;11.55;;;;;;;;;;5053655;28;20024;-64
2021/12/02 10:03:35;;;;;;;24.83;11.25;;;;;;;;;;5071326;28;20117;-64
2021/12/02 10:06:07;;;;;;;19.27;9.45;;;14.10;90.00;;;;;;5072366;28;20040;-64
2021/12/02 10:08:52;;;;;;;23.75;9.70;;;14.10;90.20;;;;;;5072455;28;20127;-66
2021/12/02 10:11:29;;;;;;;16.40;8.30;;;14.10;88.60;;;;;;5054491;28;20059;-65
2021/12/02 10:14:00;;;;;;;34.70;11.38;;;;;;;;;;5072644;28;20048;-67
2021/12/02 10:16:31;;;;;;;24.33;11.43;;;;;;;;;;5076835;28;20779;-66
2021/12/02 10:19:13;;;;;;;28.00;12.43;;;;;;;;;;5076379;28;20105;-65
2021/12/02 10:24:14;;;;;;;17.25;8.63;;;;;;;;;;5076683;28;20024;-69
2021/12/02 10:26:49;;;;;;;19.70;10.75;;;;;;;;;;5076831;28;20039;-68
2021/12/02 10:29:30;;;;;;;15.52;7.32;;;15.00;85.60;;;;;;5076809;28;20027;-69
2021/12/02 10:32:21;;;;;;;17.95;8.98;;;15.70;86.90;;;;;;5076832;28;20077;-66
2021/12/02 10:35:10;;;;;;;22.88;5.75;;;15.60;88.90;;;;;;5057988;28;20033;-72
2021/12/02 10:37:40;;;;;;;16.30;7.93;;;16.00;87.00;;;;;;5075632;28;20064;-70
2021/12/02 10:40:09;;;;;;;16.67;7.68;;;15.70;89.40;;;;;;5075330;28;20138;-70
2021/12/02 10:42:38;;;;;;;11.02;4.07;;;15.60;90.40;;;;;;5075519;28;20027;-66
2021/12/02 10:45:07;;;;;;;9.00;3.80;;;15.20;84.30;;;;;;5074790;28;20055;-66
2021/12/02 10:47:35;;;;;;;5.35;3.10;;;15.10;85.10;;;;;;5076037;28;20032;-66
2021/12/02 10:50:08;;;;;;;7.18;2.85;;;14.90;84.10;;;;;;5074934;28;20036;-65
2021/12/02 10:52:35;;;;;;;9.30;4.53;;;14.90;84.70;;;;;;5054355;28;20049;-66
2021/12/02 10:55:11;;;;;;;6.95;2.75;;;14.80;86.00;;;;;;5056090;28;20036;-64
2021/12/02 10:57:43;;;;;;;7.40;3.17;;;14.90;83.30;;;;;;5055961;28;20116;-64
2021/12/02 11:00:12;;;;;;;4.93;2.85;;;;;;;;;;5054935;28;20060;-66
2021/12/02 11:02:48;;;;;;;7.18;3.90;;;14.90;84.50;;;;;;5055885;28;20476;-66
2021/12/02 11:05:21;;;;;;;4.38;2.80;;;14.80;84.20;;;;;;5056036;28;20029;-65
2021/12/02 11:08:08;;;;;;;6.60;3.30;;;14.80;83.40;;;;;;5055738;28;20036;-64
2021/12/02 11:10:49;;;;;;;4.65;2.60;;;14.70;84.80;;;;;;5055802;28;20086;-64
2021/12/02 11:13:26;;;;;;;3.88;2.80;;;14.70;85.20;;;;;;5056001;28;20061;-67
2021/12/02 11:15:53;;;;;;;16.08;7.32;;;14.70;84.00;;;;;;5055660;28;20029;-65
2021/12/02 11:18:21;;;;;;;15.32;7.45;;;14.70;86.90;;;;;;5055643;28;20438;-64
2021/12/02 11:20:50;;;;;;;16.15;8.15;;;14.70;85.80;;;;;;5055577;28;20029;-65
2021/12/02 11:23:27;;;;;;;12.13;7.38;;;14.70;88.10;;;;;;5055187;28;20392;-66
2021/12/02 11:25:56;;;;;;;25.02;11.55;;;14.70;84.00;;;;;;5053506;28;20342;-66
2021/12/02 11:28:24;;;;;;;23.63;11.77;;;14.70;87.50;;;;;;5055541;28;20086;-67
2021/12/02 11:30:51;;;;;;;19.63;10.27;;;;;;;;;;5055440;28;20033;-65
2021/12/02 11:33:19;;;;;;;20.65;10.20;;;14.80;85.40;;;;;;5052885;28;20120;-65
2021/12/02 11:35:47;;;;;;;25.85;10.73;;;14.80;86.20;;;;;;5052571;28;20028;-67
2021/12/02 11:38:21;;;;;;;16.73;7.28;;;14.90;84.70;;;;;;5055133;28;20035;-68
2021/12/02 11:40:52;;;;;;;21.60;11.35;;;14.80;83.60;;;;;;5054348;28;20067;-67
2021/12/02 11:43:25;;;;;;;17.77;8.60;;;14.80;87.00;;;;;;5054264;28;20044;-68
2021/12/02 11:45:52;;;;;;;25.85;11.77;;;14.80;85.00;;;;;;5055082;28;20385;-66
2021/12/02 11:48:42;;;;;;;24.38;11.85;;;14.90;89.20;;;;;;5054864;28;20098;-66
2021/12/02 11:51:17;;;;;;;27.95;13.15;;;14.90;87.80;;;;;;5058912;28;20113;-65
2021/12/02 11:53:44;;;;;;;26.40;14.02;;;14.90;88.80;;;;;;5072281;28;20024;-63
2021/12/02 11:56:21;;;;;;;47.47;19.85;;;14.60;87.70;;;;;;5053610;28;20037;-62
2021/12/02 11:58:49;;;;;;;36.00;17.77;;;14.90;85.40;;;;;;5073467;28;20067;-63
2021/12/02 12:01:18;;;;;;;33.22;15.43;;;15.00;85.60;;;;;;5074916;28;20481;-63
2021/12/02 12:03:49;;;;;;;35.45;17.58;;;15.00;87.20;;;;;;5074871;28;20548;-65
2021/12/02 12:06:28;;;;;;;27.67;15.13;;;15.10;87.50;;;;;;5056889;28;20473;-66
2021/12/02 12:08:57;;;;;;;26.20;13.65;;;15.10;86.20;;;;;;5074727;28;20497;-64
2021/12/02 12:11:28;;;;;;;19.55;10.23;;;;;;;;;;5074805;28;20431;-64
2021/12/02 12:13:57;;;;;;;25.98;11.50;;;;;;;;;;5074451;28;20036;-64
2021/12/02 12:16:32;;;;;;;23.60;11.55;;;;;;;;;;5074101;28;20031;-64
2021/12/02 12:19:21;;;;;;;30.15;14.23;;;15.20;85.60;;;;;;5072257;28;20044;-64
2021/12/02 12:21:54;;;;;;;25.55;13.55;;;15.60;84.00;;;;;;5073461;28;20036;-63
2021/12/02 12:24:38;;;;;;;27.75;12.68;;;15.50;85.60;;;;;;5074060;28;20030;-63
2021/12/02 12:27:12;;;;;;;25.35;13.48;;;15.40;86.80;;;;;;5073449;28;20059;-64
2021/12/02 12:29:37;;;;;;;30.20;15.32;;;15.40;84.70;;;;;;5058640;28;20032;-64
2021/12/02 12:37:23;;;;;;;33.50;16.05;;;15.40;85.00;;;;;;5073379;28;20039;-64
2021/12/02 12:40:19;;;;;;;33.42;16.95;;;15.40;82.30;;;;;;5056255;28;20028;-64
2021/12/02 12:43:08;;;;;;;28.80;16.85;;;15.40;83.50;;;;;;5073907;28;20032;-64
2021/12/02 12:45:43;;;;;;;25.10;12.85;;;15.20;83.20;;;;;;5058315;28;20531;-64
2021/12/02 12:48:32;;;;;;;27.13;12.20;;;15.20;82.60;;;;;;5073914;28;20106;-63
2021/12/02 12:51:10;;;;;;;23.05;11.38;;;15.10;83.30;;;;;;5060548;28;20057;-64
2021/12/02 12:53:38;;;;;;;23.30;11.07;;;14.90;83.30;;;;;;5056038;28;20320;-64
2021/12/02 12:56:09;;;;;;;18.02;8.82;;;14.90;81.90;;;;;;5074123;28;20024;-62
2021/12/02 12:58:57;;;;;;;15.50;9.25;;;14.80;81.90;;;;;;5071075;28;20100;-64
2021/12/02 13:01:26;;;;;;;18.02;8.02;;;14.80;81.60;;;;;;5072922;28;20040;-63
2021/12/02 13:04:15;;;;;;;18.52;9.55;;;14.70;81.00;;;;;;5055993;28;20029;-63
2021/12/02 13:07:05;;;;;;;23.05;10.20;;;14.70;81.40;;;;;;5073845;28;20484;-64
2021/12/02 13:09:51;;;;;;;21.58;10.35;;;14.60;81.90;;;;;;5073954;28;20029;-63
2021/12/02 13:12:20;;;;;;;22.25;10.20;;;14.50;82.30;;;;;;5073537;28;20024;-63
2021/12/02 13:14:49;;;;;;;21.45;9.25;;;14.50;81.70;;;;;;5055575;28;20029;-63
2021/12/02 13:17:42;;;;;;;30.20;10.38;;;14.40;82.60;;;;;;5073716;28;20040;-64
2021/12/02 13:20:14;;;;;;;25.10;11.80;;;;;;;;;;5072929;28;20486;-64
2021/12/02 13:22:41;;;;;;;24.33;12.57;;;;;;;;;;5073654;28;20024;-64
2021/12/02 13:25:26;;;;;;;31.75;13.35;;;;;;;;;;5073328;28;20024;-63
2021/12/02 13:27:53;;;;;;;53.35;14.68;;;14.40;83.30;;;;;;5073134;28;20041;-64
2021/12/02 13:30:19;;;;;;;26.88;14.18;;;14.30;84.40;;;;;;5055240;28;20032;-63
2021/12/02 13:32:50;;;;;;;32.75;14.68;;;14.20;84.20;;;;;;5073288;28;20032;-63
2021/12/02 13:35:26;;;;;;;29.90;12.15;;;14.20;84.80;;;;;;5055057;28;20035;-64
2021/12/02 13:38:05;;;;;;;40.03;13.45;;;14.10;84.40;;;;;;5073160;28;20032;-64
2021/12/02 13:40:39;;;;;;;24.85;12.85;;;14.10;83.80;;;;;;5073124;28;20073;-63
2021/12/02 13:43:07;;;;;;;32.72;13.93;;;14.10;85.70;;;;;;5073113;28;20349;-64
2021/12/02 13:45:34;;;;;;;29.67;14.30;;;14.10;85.10;;;;;;5073057;28;20492;-63
2021/12/02 13:48:19;;;;;;;30.33;16.20;;;14.10;85.10;;;;;;5054759;28;20388;-63
2021/12/02 13:50:51;;;;;;;39.03;18.48;;;14.00;86.40;;;;;;5072277;28;20031;-63
2021/12/02 13:53:17;;;;;;;;;;;13.90;86.90;;;;;;5073410;28;20090;-63
2021/12/02 13:55:48;;;;;;;28.83;14.07;;;13.80;87.20;;;;;;5073031;28;19904;-64
2021/12/02 14:00:43;;;;;;;23.08;11.60;;;13.80;86.40;;;;;;5072569;28;20289;-64
2021/12/02 14:03:13;;;;;;;27.95;14.07;;;13.70;86.30;;;;;;5072419;28;20100;-63
2021/12/02 14:05:42;;;;;;;39.17;16.17;;;13.60;87.40;;;;;;5072816;28;20024;-63
2021/12/02 14:08:18;;;;;;;33.78;17.15;;;13.60;86.90;;;;;;5072525;28;20063;-64
2021/12/02 14:10:45;;;;;;;33.75;14.98;;;13.50;87.30;;;;;;5072618;28;20029;-64
2021/12/02 14:13:16;;;;;;;31.15;15.60;;;13.50;88.00;;;;;;5072643;28;20052;-63
2021/12/02 14:15:45;;;;;;;25.40;12.23;;;13.40;87.90;;;;;;5072798;28;20063;-64
2021/12/02 14:18:19;;;;;;;23.70;12.00;;;13.40;87.20;;;;;;5072426;28;20040;-63
2021/12/02 14:20:55;;;;;;;18.65;10.07;;;13.40;86.60;;;;;;5054605;28;20404;-63
2021/12/02 14:23:36;;;;;;;23.25;10.73;;;13.40;86.10;;;;;;5072910;28;20108;-63
2021/12/02 14:26:09;;;;;;;34.20;16.55;;;13.40;86.10;;;;;;5054603;28;20115;-63
2021/12/02 14:28:42;;;;;;;29.52;15.02;;;13.40;85.60;;;;;;5072151;28;20036;-64
2021/12/02 14:31:31;;;;;;;31.70;15.20;;;13.40;85.80;;;;;;5054638;28;20036;-63